Del Rio International Airport
KDRT : now visible

Aeroporto :











RITROVATECI SU...

 
LOGIN :

Iscrizione | Disclaimer

   EN    FR    IT 

 









Sommario :    VFR   VFR Marginale   IFR   IFR Intensivo   IFR Molto Intensivo
Visibilità : 
Base nubi : 
>= 8 km
>= 3000ft
5 / 8 km
1000 / 3000 ft
1500m / 5 km
500 / 1000 ft
800 / 1500m
200 / 500 ft
< 800m
< 200 ft
Simboli :   Temporali  Nebbia  Neve Forte  Precipitazioni Forti  Vento > 20 kt






- Altitudine del aeroporto : 1002 ft


KDRT - Del Rio International

ULTIMO METAR :
  • 040253Z AUTO 34007KT 10SM BKN037 14/09 A2998 RMK AO2 SLP142 T01390089 52023

METARs OBSOLETI :
  • 040153Z AUTO 32008KT 10SM SCT027 BKN085 14/09 A2995 RMK AO2 SLP132 T01390089
  • 040132Z AUTO 33009KT 10SM SCT026 BKN070 BKN085 14/09 A2994 RMK AO2 T01440094
  • 040053Z AUTO 32010KT 10SM OVC025 15/10 A2994 RMK AO2 SLP128 T01500100
  • 040036Z AUTO 33007KT 10SM BKN024 BKN030 OVC080 16/10 A2993 RMK AO2 T01560100

TAF KDRT
Valido dal 04 a 02 ore il 05 a 00 ore UTC


040207Z 0402/0424 32008KT P6SM SCT027 BKN090
FM040500 36007KT P6SM VCSH SCT015 OVC025
FM040900 36007KT 6SM SHRA BR OVC006



MetMap, La meteo Aeronautica in un colpo d'occhio ! - Copyright ORBIFLY Dicembre 2007 - Disclaimer

ORBIFLY MET'MAP TEAM :

Programmazione e sviluppo : Alexandra Zaïnal
Concezione : Baudouin d'Aumeries
Aiuto per la programmazione : Marc-Olivier Méhu
Supporto tecnico e logistico : Manuel Goepfert
Aiuto per la traduzione : Arnaldo La Scala

Contatto : metmap@orbifly.com




FONTI E CREDITI :

   NOAA       Earth
Advisory